sensor_id;sensor_type;location;lat;lon;timestamp;temperature;humidity
51215;DHT22;63849;47.546;19.254;2023-02-15T00:01:55;0.40;84.30
51215;DHT22;63849;47.546;19.254;2023-02-15T00:04:22;0.40;84.10
51215;DHT22;63849;47.546;19.254;2023-02-15T00:06:48;0.20;84.70
51215;DHT22;63849;47.546;19.254;2023-02-15T00:09:15;0.10;85.70
51215;DHT22;63849;47.546;19.254;2023-02-15T00:11:41;0.20;86.00
51215;DHT22;63849;47.546;19.254;2023-02-15T00:14:20;0.40;85.40
51215;DHT22;63849;47.546;19.254;2023-02-15T00:16:48;0.30;85.40
51215;DHT22;63849;47.546;19.254;2023-02-15T00:19:19;0.40;85.70
51215;DHT22;63849;47.546;19.254;2023-02-15T00:21:45;0.50;85.10
51215;DHT22;63849;47.546;19.254;2023-02-15T00:24:14;0.50;84.90
51215;DHT22;63849;47.546;19.254;2023-02-15T00:26:40;0.50;84.70
51215;DHT22;63849;47.546;19.254;2023-02-15T00:29:07;0.60;84.40
51215;DHT22;63849;47.546;19.254;2023-02-15T00:31:34;0.60;84.40
51215;DHT22;63849;47.546;19.254;2023-02-15T00:34:05;0.50;84.30
51215;DHT22;63849;47.546;19.254;2023-02-15T00:36:31;0.40;84.70
51215;DHT22;63849;47.546;19.254;2023-02-15T00:38:57;0.30;84.50
51215;DHT22;63849;47.546;19.254;2023-02-15T00:41:22;0.30;84.80
51215;DHT22;63849;47.546;19.254;2023-02-15T00:43:48;0.20;84.90
51215;DHT22;63849;47.546;19.254;2023-02-15T00:46:14;0.20;86.00
51215;DHT22;63849;47.546;19.254;2023-02-15T00:48:40;0.40;85.40
51215;DHT22;63849;47.546;19.254;2023-02-15T00:51:05;0.50;84.80
51215;DHT22;63849;47.546;19.254;2023-02-15T00:53:31;0.30;84.80
51215;DHT22;63849;47.546;19.254;2023-02-15T00:55:57;0.20;85.20
51215;DHT22;63849;47.546;19.254;2023-02-15T00:58:24;0.30;85.10
51215;DHT22;63849;47.546;19.254;2023-02-15T01:00:50;0.00;85.20
51215;DHT22;63849;47.546;19.254;2023-02-15T01:03:17;0.00;85.90
51215;DHT22;63849;47.546;19.254;2023-02-15T01:05:44;-0.10;85.90
51215;DHT22;63849;47.546;19.254;2023-02-15T01:08:09;0.00;86.40
51215;DHT22;63849;47.546;19.254;2023-02-15T01:10:36;0.20;87.40
51215;DHT22;63849;47.546;19.254;2023-02-15T01:13:02;0.30;86.80
51215;DHT22;63849;47.546;19.254;2023-02-15T01:15:28;0.40;86.60
51215;DHT22;63849;47.546;19.254;2023-02-15T01:17:54;0.40;86.80
51215;DHT22;63849;47.546;19.254;2023-02-15T01:20:23;0.20;86.70
51215;DHT22;63849;47.546;19.254;2023-02-15T01:22:49;0.20;87.00
51215;DHT22;63849;47.546;19.254;2023-02-15T01:25:20;0.30;86.80
51215;DHT22;63849;47.546;19.254;2023-02-15T01:27:46;0.20;86.80
51215;DHT22;63849;47.546;19.254;2023-02-15T01:30:13;0.30;87.20
51215;DHT22;63849;47.546;19.254;2023-02-15T01:32:39;0.30;86.90
51215;DHT22;63849;47.546;19.254;2023-02-15T01:35:05;0.30;87.00
51215;DHT22;63849;47.546;19.254;2023-02-15T01:37:32;0.40;86.90
51215;DHT22;63849;47.546;19.254;2023-02-15T01:39:57;0.50;86.90
51215;DHT22;63849;47.546;19.254;2023-02-15T01:42:27;0.60;86.80
51215;DHT22;63849;47.546;19.254;2023-02-15T01:44:56;0.60;86.50
51215;DHT22;63849;47.546;19.254;2023-02-15T01:47:41;0.70;86.20
51215;DHT22;63849;47.546;19.254;2023-02-15T01:53:05;0.70;86.40
51215;DHT22;63849;47.546;19.254;2023-02-15T01:55:33;0.70;86.50
51215;DHT22;63849;47.546;19.254;2023-02-15T01:58:01;0.80;86.60
51215;DHT22;63849;47.546;19.254;2023-02-15T02:00:28;0.80;86.60
51215;DHT22;63849;47.546;19.254;2023-02-15T02:02:55;0.80;86.10
51215;DHT22;63849;47.546;19.254;2023-02-15T02:05:22;0.70;85.90
51215;DHT22;63849;47.546;19.254;2023-02-15T02:07:51;0.60;85.70
51215;DHT22;63849;47.546;19.254;2023-02-15T02:10:21;0.70;86.10
51215;DHT22;63849;47.546;19.254;2023-02-15T02:12:50;0.80;86.40
51215;DHT22;63849;47.546;19.254;2023-02-15T02:15:17;0.80;86.40
51215;DHT22;63849;47.546;19.254;2023-02-15T02:35:25;0.20;84.90
51215;DHT22;63849;47.546;19.254;2023-02-15T02:38:00;-0.10;86.40
51215;DHT22;63849;47.546;19.254;2023-02-15T02:40:59;0.10;86.10
51215;DHT22;63849;47.546;19.254;2023-02-15T02:44:01;0.10;85.90
51215;DHT22;63849;47.546;19.254;2023-02-15T02:46:38;0.20;85.50
51215;DHT22;63849;47.546;19.254;2023-02-15T02:49:04;0.00;85.90
51215;DHT22;63849;47.546;19.254;2023-02-15T02:51:30;0.10;86.10
51215;DHT22;63849;47.546;19.254;2023-02-15T02:54:00;0.10;85.60
51215;DHT22;63849;47.546;19.254;2023-02-15T02:56:33;0.10;85.60
51215;DHT22;63849;47.546;19.254;2023-02-15T02:59:04;0.00;85.30
51215;DHT22;63849;47.546;19.254;2023-02-15T03:01:43;0.00;85.50
51215;DHT22;63849;47.546;19.254;2023-02-15T03:04:18;-0.10;86.10
51215;DHT22;63849;47.546;19.254;2023-02-15T03:07:07;0.00;85.80
51215;DHT22;63849;47.546;19.254;2023-02-15T03:09:41;0.00;85.80
51215;DHT22;63849;47.546;19.254;2023-02-15T03:12:08;0.00;85.60
51215;DHT22;63849;47.546;19.254;2023-02-15T03:14:35;0.00;85.50
51215;DHT22;63849;47.546;19.254;2023-02-15T03:17:02;-0.10;85.70
51215;DHT22;63849;47.546;19.254;2023-02-15T03:19:35;-0.10;85.40
51215;DHT22;63849;47.546;19.254;2023-02-15T03:22:13;-0.10;85.80
51215;DHT22;63849;47.546;19.254;2023-02-15T03:24:47;-0.10;85.90
51215;DHT22;63849;47.546;19.254;2023-02-15T03:27:21;-0.10;85.80
51215;DHT22;63849;47.546;19.254;2023-02-15T03:29:51;-0.10;85.50
51215;DHT22;63849;47.546;19.254;2023-02-15T03:32:17;-0.10;85.50
51215;DHT22;63849;47.546;19.254;2023-02-15T03:34:44;-0.10;85.60
51215;DHT22;63849;47.546;19.254;2023-02-15T03:37:37;-0.10;85.40
51215;DHT22;63849;47.546;19.254;2023-02-15T03:45:57;-0.20;85.30
51215;DHT22;63849;47.546;19.254;2023-02-15T03:48:36;-0.30;85.70
51215;DHT22;63849;47.546;19.254;2023-02-15T03:51:16;-0.20;85.70
51215;DHT22;63849;47.546;19.254;2023-02-15T03:57:01;-0.30;85.70
51215;DHT22;63849;47.546;19.254;2023-02-15T03:59:45;-0.40;85.80
51215;DHT22;63849;47.546;19.254;2023-02-15T04:02:37;-0.60;86.50
51215;DHT22;63849;47.546;19.254;2023-02-15T04:05:04;-0.60;86.50
51215;DHT22;63849;47.546;19.254;2023-02-15T04:07:30;-0.50;86.20
51215;DHT22;63849;47.546;19.254;2023-02-15T04:09:55;-0.40;86.00
51215;DHT22;63849;47.546;19.254;2023-02-15T04:12:39;-0.30;85.90
51215;DHT22;63849;47.546;19.254;2023-02-15T04:15:05;-0.40;86.00
51215;DHT22;63849;47.546;19.254;2023-02-15T04:17:50;-0.40;85.90
51215;DHT22;63849;47.546;19.254;2023-02-15T04:20:16;-0.30;85.70
51215;DHT22;63849;47.546;19.254;2023-02-15T04:23:00;-0.40;85.60
51215;DHT22;63849;47.546;19.254;2023-02-15T04:25:44;-0.30;85.60
51215;DHT22;63849;47.546;19.254;2023-02-15T04:28:10;-0.40;85.50
51215;DHT22;63849;47.546;19.254;2023-02-15T04:30:36;-0.40;85.50
51215;DHT22;63849;47.546;19.254;2023-02-15T04:33:02;-0.50;85.80
51215;DHT22;63849;47.546;19.254;2023-02-15T04:35:27;-0.40;85.30
51215;DHT22;63849;47.546;19.254;2023-02-15T04:37:53;-0.40;85.20
51215;DHT22;63849;47.546;19.254;2023-02-15T04:40:19;-0.40;85.00
51215;DHT22;63849;47.546;19.254;2023-02-15T04:42:47;-0.40;85.10
51215;DHT22;63849;47.546;19.254;2023-02-15T04:45:13;-0.60;85.40
51215;DHT22;63849;47.546;19.254;2023-02-15T04:47:39;-0.50;85.60
51215;DHT22;63849;47.546;19.254;2023-02-15T04:50:05;-0.40;85.60
51215;DHT22;63849;47.546;19.254;2023-02-15T04:52:31;-0.40;85.50
51215;DHT22;63849;47.546;19.254;2023-02-15T04:54:56;-0.40;85.30
51215;DHT22;63849;47.546;19.254;2023-02-15T04:57:22;-0.40;85.40
51215;DHT22;63849;47.546;19.254;2023-02-15T04:59:48;-0.40;85.50
51215;DHT22;63849;47.546;19.254;2023-02-15T05:02:14;-0.40;85.40
51215;DHT22;63849;47.546;19.254;2023-02-15T05:04:39;-0.30;85.50
51215;DHT22;63849;47.546;19.254;2023-02-15T05:07:05;-0.40;85.50
51215;DHT22;63849;47.546;19.254;2023-02-15T05:09:31;-0.40;85.30
51215;DHT22;63849;47.546;19.254;2023-02-15T05:11:56;-0.50;85.30
51215;DHT22;63849;47.546;19.254;2023-02-15T05:14:22;-0.40;85.50
51215;DHT22;63849;47.546;19.254;2023-02-15T05:16:48;-0.60;85.80
51215;DHT22;63849;47.546;19.254;2023-02-15T05:19:14;-0.50;85.50
51215;DHT22;63849;47.546;19.254;2023-02-15T05:21:40;-0.50;85.40
51215;DHT22;63849;47.546;19.254;2023-02-15T05:24:05;-0.50;85.30
51215;DHT22;63849;47.546;19.254;2023-02-15T05:26:51;-0.50;85.10
51215;DHT22;63849;47.546;19.254;2023-02-15T05:29:35;-0.40;85.40
51215;DHT22;63849;47.546;19.254;2023-02-15T05:32:01;-0.40;85.40
51215;DHT22;63849;47.546;19.254;2023-02-15T05:34:27;-0.40;85.30
51215;DHT22;63849;47.546;19.254;2023-02-15T05:36:53;-0.30;85.60
51215;DHT22;63849;47.546;19.254;2023-02-15T05:39:19;-0.40;85.70
51215;DHT22;63849;47.546;19.254;2023-02-15T05:41:44;-0.50;85.90
51215;DHT22;63849;47.546;19.254;2023-02-15T05:44:10;-0.50;85.60
51215;DHT22;63849;47.546;19.254;2023-02-15T05:46:36;-0.40;85.80
51215;DHT22;63849;47.546;19.254;2023-02-15T05:49:02;-0.40;85.60
51215;DHT22;63849;47.546;19.254;2023-02-15T05:51:28;-0.40;85.50
51215;DHT22;63849;47.546;19.254;2023-02-15T05:53:53;-0.40;85.70
51215;DHT22;63849;47.546;19.254;2023-02-15T05:56:19;-0.50;85.80
51215;DHT22;63849;47.546;19.254;2023-02-15T05:58:45;-0.50;86.00
51215;DHT22;63849;47.546;19.254;2023-02-15T06:01:16;-0.40;86.20
51215;DHT22;63849;47.546;19.254;2023-02-15T06:03:43;-0.50;86.10
51215;DHT22;63849;47.546;19.254;2023-02-15T06:06:09;-0.50;85.90
51215;DHT22;63849;47.546;19.254;2023-02-15T06:08:38;-0.40;85.70
51215;DHT22;63849;47.546;19.254;2023-02-15T06:11:04;-0.50;85.70
51215;DHT22;63849;47.546;19.254;2023-02-15T06:13:30;-0.40;86.00
51215;DHT22;63849;47.546;19.254;2023-02-15T06:15:57;-0.40;85.90
51215;DHT22;63849;47.546;19.254;2023-02-15T06:18:22;-0.40;85.80
51215;DHT22;63849;47.546;19.254;2023-02-15T06:20:53;-0.20;85.90
51215;DHT22;63849;47.546;19.254;2023-02-15T06:23:18;-0.20;86.00
51215;DHT22;63849;47.546;19.254;2023-02-15T06:25:46;-0.10;85.60
51215;DHT22;63849;47.546;19.254;2023-02-15T06:28:15;-0.10;85.70
51215;DHT22;63849;47.546;19.254;2023-02-15T06:30:40;-0.10;85.80
51215;DHT22;63849;47.546;19.254;2023-02-15T06:33:06;0.00;85.20
51215;DHT22;63849;47.546;19.254;2023-02-15T06:35:32;0.00;85.00
51215;DHT22;63849;47.546;19.254;2023-02-15T06:37:58;0.00;85.20
51215;DHT22;63849;47.546;19.254;2023-02-15T06:40:23;0.10;85.00
51215;DHT22;63849;47.546;19.254;2023-02-15T06:42:49;0.20;85.10
51215;DHT22;63849;47.546;19.254;2023-02-15T06:45:15;0.20;85.20
51215;DHT22;63849;47.546;19.254;2023-02-15T06:47:41;0.20;85.40
51215;DHT22;63849;47.546;19.254;2023-02-15T06:50:07;0.30;85.30
51215;DHT22;63849;47.546;19.254;2023-02-15T06:52:33;0.50;85.60
51215;DHT22;63849;47.546;19.254;2023-02-15T06:54:59;0.50;85.60
51215;DHT22;63849;47.546;19.254;2023-02-15T06:57:25;0.70;85.60
51215;DHT22;63849;47.546;19.254;2023-02-15T06:59:51;0.80;85.30
51215;DHT22;63849;47.546;19.254;2023-02-15T07:02:18;0.80;86.10
51215;DHT22;63849;47.546;19.254;2023-02-15T07:04:44;0.90;86.30
51215;DHT22;63849;47.546;19.254;2023-02-15T07:07:11;1.00;86.80
51215;DHT22;63849;47.546;19.254;2023-02-15T07:09:38;1.10;86.60
51215;DHT22;63849;47.546;19.254;2023-02-15T07:12:04;1.30;86.50
51215;DHT22;63849;47.546;19.254;2023-02-15T07:14:49;1.40;86.40
51215;DHT22;63849;47.546;19.254;2023-02-15T07:17:14;1.50;86.30
51215;DHT22;63849;47.546;19.254;2023-02-15T07:19:40;1.60;86.00
51215;DHT22;63849;47.546;19.254;2023-02-15T07:22:09;1.70;85.70
51215;DHT22;63849;47.546;19.254;2023-02-15T07:24:34;1.80;85.70
51215;DHT22;63849;47.546;19.254;2023-02-15T07:27:00;1.80;85.70
51215;DHT22;63849;47.546;19.254;2023-02-15T07:29:26;2.00;85.50
51215;DHT22;63849;47.546;19.254;2023-02-15T07:31:52;2.10;85.10
51215;DHT22;63849;47.546;19.254;2023-02-15T07:34:17;2.20;85.20
51215;DHT22;63849;47.546;19.254;2023-02-15T07:36:43;2.30;85.00
51215;DHT22;63849;47.546;19.254;2023-02-15T07:39:10;2.40;85.00
51215;DHT22;63849;47.546;19.254;2023-02-15T07:41:36;2.40;84.70
51215;DHT22;63849;47.546;19.254;2023-02-15T07:44:02;2.40;84.40
51215;DHT22;63849;47.546;19.254;2023-02-15T07:46:28;2.60;84.50
51215;DHT22;63849;47.546;19.254;2023-02-15T07:48:54;2.60;84.20
51215;DHT22;63849;47.546;19.254;2023-02-15T07:51:20;2.70;84.20
51215;DHT22;63849;47.546;19.254;2023-02-15T07:53:45;2.70;84.40
51215;DHT22;63849;47.546;19.254;2023-02-15T07:56:13;2.80;84.10
51215;DHT22;63849;47.546;19.254;2023-02-15T07:58:39;2.80;84.20
51215;DHT22;63849;47.546;19.254;2023-02-15T08:01:19;2.80;84.10
51215;DHT22;63849;47.546;19.254;2023-02-15T08:03:45;3.10;83.90
51215;DHT22;63849;47.546;19.254;2023-02-15T08:06:11;3.10;83.70
51215;DHT22;63849;47.546;19.254;2023-02-15T08:08:39;3.10;83.20
51215;DHT22;63849;47.546;19.254;2023-02-15T08:11:09;3.20;83.00
51215;DHT22;63849;47.546;19.254;2023-02-15T08:13:56;3.30;82.80
51215;DHT22;63849;47.546;19.254;2023-02-15T08:16:27;3.30;83.10
51215;DHT22;63849;47.546;19.254;2023-02-15T08:18:53;3.40;83.10
51215;DHT22;63849;47.546;19.254;2023-02-15T08:21:20;3.40;82.60
51215;DHT22;63849;47.546;19.254;2023-02-15T08:23:46;3.50;82.60
51215;DHT22;63849;47.546;19.254;2023-02-15T08:26:12;3.60;82.60
51215;DHT22;63849;47.546;19.254;2023-02-15T08:28:40;3.80;81.90
51215;DHT22;63849;47.546;19.254;2023-02-15T08:31:08;3.80;82.10
51215;DHT22;63849;47.546;19.254;2023-02-15T08:33:36;3.80;81.70
51215;DHT22;63849;47.546;19.254;2023-02-15T08:36:06;3.90;82.20
51215;DHT22;63849;47.546;19.254;2023-02-15T08:38:33;4.00;82.00
51215;DHT22;63849;47.546;19.254;2023-02-15T08:43:41;4.10;81.10
51215;DHT22;63849;47.546;19.254;2023-02-15T08:46:10;4.20;81.00
51215;DHT22;63849;47.546;19.254;2023-02-15T08:48:36;4.20;80.60
51215;DHT22;63849;47.546;19.254;2023-02-15T08:51:10;4.30;80.80
51215;DHT22;63849;47.546;19.254;2023-02-15T08:53:40;4.30;80.70
51215;DHT22;63849;47.546;19.254;2023-02-15T08:56:07;4.30;80.40
51215;DHT22;63849;47.546;19.254;2023-02-15T08:58:34;4.30;80.80
51215;DHT22;63849;47.546;19.254;2023-02-15T09:01:00;4.40;80.20
51215;DHT22;63849;47.546;19.254;2023-02-15T09:03:28;4.50;79.70
51215;DHT22;63849;47.546;19.254;2023-02-15T09:05:59;4.50;79.20
51215;DHT22;63849;47.546;19.254;2023-02-15T09:08:26;4.50;79.30
51215;DHT22;63849;47.546;19.254;2023-02-15T09:10:52;4.60;79.60
51215;DHT22;63849;47.546;19.254;2023-02-15T09:13:18;4.70;79.50
51215;DHT22;63849;47.546;19.254;2023-02-15T09:15:44;4.60;79.00
51215;DHT22;63849;47.546;19.254;2023-02-15T09:18:10;4.70;78.40
51215;DHT22;63849;47.546;19.254;2023-02-15T09:20:37;4.80;79.10
51215;DHT22;63849;47.546;19.254;2023-02-15T09:23:03;4.80;78.00
51215;DHT22;63849;47.546;19.254;2023-02-15T09:25:29;4.90;78.30
51215;DHT22;63849;47.546;19.254;2023-02-15T09:27:55;4.90;78.00
51215;DHT22;63849;47.546;19.254;2023-02-15T09:30:20;4.90;78.10
51215;DHT22;63849;47.546;19.254;2023-02-15T09:32:47;5.00;78.30
51215;DHT22;63849;47.546;19.254;2023-02-15T09:35:13;5.00;77.50
51215;DHT22;63849;47.546;19.254;2023-02-15T09:37:39;5.00;77.60
51215;DHT22;63849;47.546;19.254;2023-02-15T09:40:05;5.10;77.90
51215;DHT22;63849;47.546;19.254;2023-02-15T09:50:59;5.20;77.00
51215;DHT22;63849;47.546;19.254;2023-02-15T09:56:29;5.30;77.00
51215;DHT22;63849;47.546;19.254;2023-02-15T09:59:02;5.40;77.10
51215;DHT22;63849;47.546;19.254;2023-02-15T10:05:32;5.40;75.90
51215;DHT22;63849;47.546;19.254;2023-02-15T10:08:29;5.50;75.90
51215;DHT22;63849;47.546;19.254;2023-02-15T10:11:07;5.60;75.60
51215;DHT22;63849;47.546;19.254;2023-02-15T10:16:40;5.60;75.60
51215;DHT22;63849;47.546;19.254;2023-02-15T10:19:30;5.60;76.20
51215;DHT22;63849;47.546;19.254;2023-02-15T10:27:18;5.70;75.50
51215;DHT22;63849;47.546;19.254;2023-02-15T11:07:04;6.10;73.90
51215;DHT22;63849;47.546;19.254;2023-02-15T11:09:47;6.20;73.30
51215;DHT22;63849;47.546;19.254;2023-02-15T11:12:17;6.20;73.70
51215;DHT22;63849;47.546;19.254;2023-02-15T11:15:36;6.40;73.20
51215;DHT22;63849;47.546;19.254;2023-02-15T11:17:41;6.40;73.50
51215;DHT22;63849;47.546;19.254;2023-02-15T11:22:53;6.50;72.50
51215;DHT22;63849;47.546;19.254;2023-02-15T11:25:32;6.60;72.50
51215;DHT22;63849;47.546;19.254;2023-02-15T11:28:03;6.50;71.90
51215;DHT22;63849;47.546;19.254;2023-02-15T11:30:40;6.40;72.00
51215;DHT22;63849;47.546;19.254;2023-02-15T11:33:18;6.40;72.40
51215;DHT22;63849;47.546;19.254;2023-02-15T11:35:55;6.50;71.60
51215;DHT22;63849;47.546;19.254;2023-02-15T11:38:28;6.40;71.90
51215;DHT22;63849;47.546;19.254;2023-02-15T11:41:04;6.40;72.20
51215;DHT22;63849;47.546;19.254;2023-02-15T11:43:58;6.50;72.10
51215;DHT22;63849;47.546;19.254;2023-02-15T11:46:26;6.50;71.70
51215;DHT22;63849;47.546;19.254;2023-02-15T11:48:52;6.50;72.10
51215;DHT22;63849;47.546;19.254;2023-02-15T11:51:21;6.40;70.30
51215;DHT22;63849;47.546;19.254;2023-02-15T11:53:48;6.40;72.00
51215;DHT22;63849;47.546;19.254;2023-02-15T11:56:21;6.40;71.90
51215;DHT22;63849;47.546;19.254;2023-02-15T11:59:04;6.30;71.20
51215;DHT22;63849;47.546;19.254;2023-02-15T12:01:42;6.40;71.90
51215;DHT22;63849;47.546;19.254;2023-02-15T12:06:53;6.60;71.40
51215;DHT22;63849;47.546;19.254;2023-02-15T12:09:48;6.70;71.50
51215;DHT22;63849;47.546;19.254;2023-02-15T12:14:52;6.70;70.90
51215;DHT22;63849;47.546;19.254;2023-02-15T12:17:21;6.70;70.90
51215;DHT22;63849;47.546;19.254;2023-02-15T12:19:47;6.70;71.50
51215;DHT22;63849;47.546;19.254;2023-02-15T12:22:26;6.60;70.20
51215;DHT22;63849;47.546;19.254;2023-02-15T12:24:55;6.70;70.90
51215;DHT22;63849;47.546;19.254;2023-02-15T12:27:34;6.70;71.30
51215;DHT22;63849;47.546;19.254;2023-02-15T12:30:07;6.70;71.40
51215;DHT22;63849;47.546;19.254;2023-02-15T12:33:05;6.60;70.10
51215;DHT22;63849;47.546;19.254;2023-02-15T12:35:35;6.70;70.60
51215;DHT22;63849;47.546;19.254;2023-02-15T12:40:37;6.70;69.30
51215;DHT22;63849;47.546;19.254;2023-02-15T12:43:04;6.80;69.30
51215;DHT22;63849;47.546;19.254;2023-02-15T12:45:37;6.80;69.70
51215;DHT22;63849;47.546;19.254;2023-02-15T12:50:40;6.80;69.80
51215;DHT22;63849;47.546;19.254;2023-02-15T12:55:33;6.90;69.80
51215;DHT22;63849;47.546;19.254;2023-02-15T12:58:06;6.80;69.40
51215;DHT22;63849;47.546;19.254;2023-02-15T13:00:32;6.80;68.70
51215;DHT22;63849;47.546;19.254;2023-02-15T13:02:59;6.80;68.40
51215;DHT22;63849;47.546;19.254;2023-02-15T13:05:38;6.80;68.50
51215;DHT22;63849;47.546;19.254;2023-02-15T13:08:15;6.80;68.90
51215;DHT22;63849;47.546;19.254;2023-02-15T13:10:54;6.80;69.70
51215;DHT22;63849;47.546;19.254;2023-02-15T13:13:25;6.80;69.70
51215;DHT22;63849;47.546;19.254;2023-02-15T13:15:54;6.80;69.90
51215;DHT22;63849;47.546;19.254;2023-02-15T13:18:37;6.80;69.20
51215;DHT22;63849;47.546;19.254;2023-02-15T13:21:11;6.80;68.70
51215;DHT22;63849;47.546;19.254;2023-02-15T13:23:38;6.90;67.80
51215;DHT22;63849;47.546;19.254;2023-02-15T13:26:10;6.90;67.90
51215;DHT22;63849;47.546;19.254;2023-02-15T13:28:51;7.00;67.10
51215;DHT22;63849;47.546;19.254;2023-02-15T13:31:22;7.10;67.00
51215;DHT22;63849;47.546;19.254;2023-02-15T13:33:52;7.00;67.80
51215;DHT22;63849;47.546;19.254;2023-02-15T13:39:07;6.90;67.70
51215;DHT22;63849;47.546;19.254;2023-02-15T13:41:50;7.00;67.60
51215;DHT22;63849;47.546;19.254;2023-02-15T13:44:41;7.00;66.50
51215;DHT22;63849;47.546;19.254;2023-02-15T13:47:27;7.00;67.30
51215;DHT22;63849;47.546;19.254;2023-02-15T14:20:43;6.70;67.90
51215;DHT22;63849;47.546;19.254;2023-02-15T14:23:29;6.70;67.80
51215;DHT22;63849;47.546;19.254;2023-02-15T14:28:59;6.60;68.40
51215;DHT22;63849;47.546;19.254;2023-02-15T14:31:39;6.50;68.70
51215;DHT22;63849;47.546;19.254;2023-02-15T14:36:51;6.50;69.00
51215;DHT22;63849;47.546;19.254;2023-02-15T14:42:23;6.40;69.20
51215;DHT22;63849;47.546;19.254;2023-02-15T14:44:57;6.40;69.10
51215;DHT22;63849;47.546;19.254;2023-02-15T14:47:33;6.50;68.60
51215;DHT22;63849;47.546;19.254;2023-02-15T14:50:37;6.50;68.20
51215;DHT22;63849;47.546;19.254;2023-02-15T15:01:33;6.40;69.20
51215;DHT22;63849;47.546;19.254;2023-02-15T15:04:03;6.30;69.90
51215;DHT22;63849;47.546;19.254;2023-02-15T15:06:35;6.30;70.20
51215;DHT22;63849;47.546;19.254;2023-02-15T15:09:12;6.20;70.70
51215;DHT22;63849;47.546;19.254;2023-02-15T15:11:52;6.10;70.70
51215;DHT22;63849;47.546;19.254;2023-02-15T15:17:04;6.10;71.20
51215;DHT22;63849;47.546;19.254;2023-02-15T15:27:46;5.80;71.80
51215;DHT22;63849;47.546;19.254;2023-02-15T15:40:48;5.60;73.30
51215;DHT22;63849;47.546;19.254;2023-02-15T15:48:38;5.30;74.10
51215;DHT22;63849;47.546;19.254;2023-02-15T15:51:29;5.10;74.90
51215;DHT22;63849;47.546;19.254;2023-02-15T15:53:55;5.10;75.00
51215;DHT22;63849;47.546;19.254;2023-02-15T15:56:28;5.00;75.10
51215;DHT22;63849;47.546;19.254;2023-02-15T15:59:07;4.90;75.30
51215;DHT22;63849;47.546;19.254;2023-02-15T16:01:42;4.80;75.70
51215;DHT22;63849;47.546;19.254;2023-02-15T16:04:27;4.80;75.90
51215;DHT22;63849;47.546;19.254;2023-02-15T16:06:56;4.80;76.00
51215;DHT22;63849;47.546;19.254;2023-02-15T16:09:24;4.60;76.30
51215;DHT22;63849;47.546;19.254;2023-02-15T16:11:53;4.60;76.40
51215;DHT22;63849;47.546;19.254;2023-02-15T16:14:30;4.50;76.60
51215;DHT22;63849;47.546;19.254;2023-02-15T16:17:00;4.50;76.60
51215;DHT22;63849;47.546;19.254;2023-02-15T16:19:33;4.40;76.80
51215;DHT22;63849;47.546;19.254;2023-02-15T16:22:00;4.30;77.00
51215;DHT22;63849;47.546;19.254;2023-02-15T16:29:42;4.20;77.30
51215;DHT22;63849;47.546;19.254;2023-02-15T16:32:25;4.20;77.40
51215;DHT22;63849;47.546;19.254;2023-02-15T16:37:23;4.10;77.70
51215;DHT22;63849;47.546;19.254;2023-02-15T16:39:51;4.00;77.60
51215;DHT22;63849;47.546;19.254;2023-02-15T16:42:17;3.90;78.00
51215;DHT22;63849;47.546;19.254;2023-02-15T16:44:50;3.80;78.20
51215;DHT22;63849;47.546;19.254;2023-02-15T16:47:40;3.80;78.20
51215;DHT22;63849;47.546;19.254;2023-02-15T16:50:23;3.80;78.40
51215;DHT22;63849;47.546;19.254;2023-02-15T16:52:50;3.80;78.50
51215;DHT22;63849;47.546;19.254;2023-02-15T16:55:28;3.60;78.70
51215;DHT22;63849;47.546;19.254;2023-02-15T16:58:02;3.60;78.80
51215;DHT22;63849;47.546;19.254;2023-02-15T17:00:34;3.60;79.10
51215;DHT22;63849;47.546;19.254;2023-02-15T17:03:06;3.50;79.30
51215;DHT22;63849;47.546;19.254;2023-02-15T17:05:45;3.40;79.40
51215;DHT22;63849;47.546;19.254;2023-02-15T17:13:37;3.30;79.70
51215;DHT22;63849;47.546;19.254;2023-02-15T17:18:39;3.30;79.70
51215;DHT22;63849;47.546;19.254;2023-02-15T17:21:19;3.20;79.70
51215;DHT22;63849;47.546;19.254;2023-02-15T17:23:50;3.10;80.30
51215;DHT22;63849;47.546;19.254;2023-02-15T17:26:23;3.10;80.20
51215;DHT22;63849;47.546;19.254;2023-02-15T17:28:54;3.00;80.40
51215;DHT22;63849;47.546;19.254;2023-02-15T17:31:25;2.90;80.50
51215;DHT22;63849;47.546;19.254;2023-02-15T17:33:52;3.00;80.60
51215;DHT22;63849;47.546;19.254;2023-02-15T17:36:22;2.80;80.90
51215;DHT22;63849;47.546;19.254;2023-02-15T17:41:31;2.80;80.60
51215;DHT22;63849;47.546;19.254;2023-02-15T17:43:58;2.70;80.70
51215;DHT22;63849;47.546;19.254;2023-02-15T17:46:24;2.70;81.00
51215;DHT22;63849;47.546;19.254;2023-02-15T17:48:53;2.60;81.20
51215;DHT22;63849;47.546;19.254;2023-02-15T17:51:21;2.60;81.40
51215;DHT22;63849;47.546;19.254;2023-02-15T17:53:47;2.60;81.30
51215;DHT22;63849;47.546;19.254;2023-02-15T17:56:35;2.50;81.90
51215;DHT22;63849;47.546;19.254;2023-02-15T17:59:02;2.60;81.70
51215;DHT22;63849;47.546;19.254;2023-02-15T18:01:33;2.50;81.60
51215;DHT22;63849;47.546;19.254;2023-02-15T18:04:18;2.50;81.60
51215;DHT22;63849;47.546;19.254;2023-02-15T18:07:02;2.40;81.50
51215;DHT22;63849;47.546;19.254;2023-02-15T18:09:47;2.40;81.60
51215;DHT22;63849;47.546;19.254;2023-02-15T18:12:34;2.30;82.00
51215;DHT22;63849;47.546;19.254;2023-02-15T18:15:02;2.30;82.30
51215;DHT22;63849;47.546;19.254;2023-02-15T18:17:37;2.30;82.70
51215;DHT22;63849;47.546;19.254;2023-02-15T18:20:09;2.30;82.20
51215;DHT22;63849;47.546;19.254;2023-02-15T18:22:40;2.10;82.20
51215;DHT22;63849;47.546;19.254;2023-02-15T18:25:17;2.20;83.00
51215;DHT22;63849;47.546;19.254;2023-02-15T18:27:43;2.10;82.70
51215;DHT22;63849;47.546;19.254;2023-02-15T18:30:19;2.00;82.60
51215;DHT22;63849;47.546;19.254;2023-02-15T18:32:46;1.90;83.10
51215;DHT22;63849;47.546;19.254;2023-02-15T18:35:21;1.80;83.10
51215;DHT22;63849;47.546;19.254;2023-02-15T18:37:48;1.90;83.00
51215;DHT22;63849;47.546;19.254;2023-02-15T18:40:16;1.90;82.80
51215;DHT22;63849;47.546;19.254;2023-02-15T18:42:45;1.90;83.20
51215;DHT22;63849;47.546;19.254;2023-02-15T18:45:21;1.90;83.00
51215;DHT22;63849;47.546;19.254;2023-02-15T18:47:49;1.80;83.40
51215;DHT22;63849;47.546;19.254;2023-02-15T18:50:17;1.80;83.00
51215;DHT22;63849;47.546;19.254;2023-02-15T18:52:47;1.80;83.10
51215;DHT22;63849;47.546;19.254;2023-02-15T18:55:24;1.80;83.10
51215;DHT22;63849;47.546;19.254;2023-02-15T18:57:52;1.70;83.50
51215;DHT22;63849;47.546;19.254;2023-02-15T19:00:23;1.70;83.60
51215;DHT22;63849;47.546;19.254;2023-02-15T19:02:51;1.60;83.80
51215;DHT22;63849;47.546;19.254;2023-02-15T19:05:18;1.50;83.70
51215;DHT22;63849;47.546;19.254;2023-02-15T19:07:44;1.40;84.10
51215;DHT22;63849;47.546;19.254;2023-02-15T19:10:22;1.50;84.00
51215;DHT22;63849;47.546;19.254;2023-02-15T19:12:49;1.40;84.00
51215;DHT22;63849;47.546;19.254;2023-02-15T19:15:26;1.50;84.00